Time;durP1;ratioP1;P1;durP2;ratioP2;P2;SDS_P1;SDS_P2;PMS_P1;PMS_P2;Temp;Humidity;BMP_temperature;BMP_pressure;BME280_temperature;BME280_humidity;BME280_pressure;Samples;Min_cycle;Max_cycle;Signal;HPM_P1;HPM_P2
2024/04/12 00:01:08;;;;;;;10.48;4.80;;;;;;;;;;4928238;29;20199;-92
2024/04/12 00:04:15;;;;;;;12.45;5.60;;;;;;;;;;4927872;29;20192;-92
2024/04/12 00:07:22;;;;;;;11.35;5.55;;;;;;;;;;4931279;29;20204;-92
2024/04/12 00:10:28;;;;;;;11.75;5.15;;;;;;;;;;4931875;29;20191;-93
2024/04/12 00:13:36;;;;;;;8.50;4.70;;;;;;;;;;4932042;29;20301;-90
2024/04/12 00:16:43;;;;;;;8.10;4.97;;;;;;;;;;4931470;29;20183;-91
2024/04/12 00:19:52;;;;;;;11.52;5.43;;;;;;;;;;4932146;29;20211;-92
2024/04/12 00:22:56;;;;;;;11.80;5.25;;;;;;;;;;4931022;29;20328;-92
2024/04/12 00:26:03;;;;;;;10.38;5.80;;;;;;;;;;4931520;29;20184;-92
2024/04/12 00:29:10;;;;;;;10.43;5.30;;;;;;;;;;4929943;29;20191;-92
2024/04/12 00:32:18;;;;;;;12.07;5.55;;;;;;;;;;4929439;29;20220;-92
2024/04/12 00:35:21;;;;;;;9.20;5.10;;;;;;;;;;4928356;29;20191;-91
2024/04/12 00:38:27;;;;;;;10.27;5.88;;;;;;;;;;4928401;29;20236;-92
2024/04/12 00:41:32;;;;;;;11.35;5.53;;;;;;;;;;4930766;29;20191;-91
2024/04/12 00:44:38;;;;;;;9.88;5.82;;;;;;;;;;4930292;29;20317;-93
2024/04/12 00:47:42;;;;;;;9.32;5.57;;;;;;;;;;4929706;29;20258;-91
2024/04/12 00:50:50;;;;;;;10.27;5.63;;;;;;;;;;4929630;29;20283;-92
2024/04/12 00:53:57;;;;;;;11.57;5.75;;;;;;;;;;4929105;29;20223;-92
2024/04/12 00:57:03;;;;;;;10.45;5.82;;;;;;;;;;4930636;29;20212;-93
2024/04/12 01:00:17;;;;;;;11.55;6.30;;;;;;;;;;4930938;29;20212;-92
2024/04/12 01:03:21;;;;;;;10.57;5.90;;;;;;;;;;4930186;29;20217;-91
2024/04/12 01:06:29;;;;;;;10.85;5.57;;;;;;;;;;4930164;29;20232;-92
2024/04/12 01:09:35;;;;;;;13.27;6.07;;;;;;;;;;4930148;29;20183;-92
2024/04/12 01:12:43;;;;;;;13.23;6.05;;;;;;;;;;4930963;29;20314;-91
2024/04/12 01:15:47;;;;;;;12.10;6.22;;;;;;;;;;4931273;29;20192;-92
2024/04/12 01:18:55;;;;;;;12.32;6.07;;;;;;;;;;4931457;29;20289;-91
2024/04/12 01:22:00;;;;;;;13.73;5.85;;;;;;;;;;4932488;29;20212;-92
2024/04/12 01:25:07;;;;;;;9.68;5.88;;;;;;;;;;4930581;29;20623;-91
2024/04/12 01:28:15;;;;;;;10.68;5.47;;;;;;;;;;4931254;29;20188;-90
2024/04/12 01:31:19;;;;;;;10.15;5.85;;;;;;;;;;4931057;29;20280;-92
2024/04/12 01:34:25;;;;;;;9.55;5.78;;;;;;;;;;4930582;29;20188;-92
2024/04/12 01:37:30;;;;;;;8.82;5.10;;;;;;;;;;4936826;29;20180;-93
2024/04/12 01:40:37;;;;;;;10.73;5.28;;;;;;;;;;4929159;29;20191;-91
2024/04/12 01:43:41;;;;;;;10.95;5.63;;;;;;;;;;4928127;29;20176;-92
2024/04/12 01:46:48;;;;;;;10.63;5.43;;;;;;;;;;4928577;29;20227;-92
2024/04/12 01:49:53;;;;;;;8.48;5.20;;;;;;;;;;4927071;29;20663;-91
2024/04/12 01:53:00;;;;;;;13.70;7.32;;;;;;;;;;4928118;29;20248;-91
2024/04/12 01:56:09;;;;;;;12.90;6.05;;;;;;;;;;4929169;29;20199;-91
2024/04/12 01:59:15;;;;;;;14.25;5.88;;;;;;;;;;4928374;29;20191;-91
2024/04/12 02:02:20;;;;;;;13.63;6.28;;;;;;;;;;4929291;29;20248;-90
2024/04/12 02:05:29;;;;;;;8.88;5.70;;;;;;;;;;4929414;29;20668;-92
2024/04/12 02:08:35;;;;;;;11.38;5.53;;;;;;;;;;4928681;29;20228;-92
2024/04/12 02:11:42;;;;;;;9.93;5.97;;;;;;;;;;4929682;29;20211;-93
2024/04/12 02:14:46;;;;;;;14.63;6.53;;;;;;;;;;4929394;29;20228;-92
2024/04/12 02:17:57;;;;;;;9.97;5.77;;;;;;;;;;4929221;29;20183;-91
2024/04/12 02:21:05;;;;;;;12.13;6.05;;;;;;;;;;4929310;29;20180;-92
2024/04/12 02:24:10;;;;;;;10.27;5.77;;;;;;;;;;4928281;29;20243;-92
2024/04/12 02:27:16;;;;;;;11.07;5.93;;;;;;;;;;4947276;23;20251;-92
2024/04/12 02:30:22;;;;;;;12.70;7.00;;;;;;;;;;4929478;29;20184;-91
2024/04/12 02:33:30;;;;;;;11.03;6.30;;;;;;;;;;4929253;29;20248;-92
2024/04/12 02:36:35;;;;;;;11.63;6.33;;;;;;;;;;4929801;29;20239;-92
2024/04/12 02:39:40;;;;;;;9.80;5.87;;;;;;;;;;4928826;29;20211;-93
2024/04/12 02:42:47;;;;;;;13.73;6.13;;;;;;;;;;4929981;29;20188;-92
2024/04/12 02:45:53;;;;;;;10.67;6.33;;;;;;;;;;4930325;29;20200;-91
2024/04/12 02:49:04;;;;;;;12.10;6.20;;;;;;;;;;4929931;29;20187;-92
2024/04/12 02:52:09;;;;;;;11.23;5.73;;;;;;;;;;4928390;29;20216;-91
2024/04/12 02:55:13;;;;;;;11.07;6.03;;;;;;;;;;4927807;29;20663;-90
2024/04/12 02:58:22;;;;;;;10.10;6.40;;;;;;;;;;4929013;29;20245;-90
2024/04/12 03:01:26;;;;;;;12.47;6.37;;;;;;;;;;4928426;29;20183;-91
2024/04/12 03:04:31;;;;;;;11.63;6.60;;;;;;;;;;4928593;29;20272;-90
2024/04/12 03:07:40;;;;;;;14.43;6.27;;;;;;;;;;4928720;29;20192;-92
2024/04/12 03:10:45;;;;;;;13.93;6.33;;;;;;;;;;4925641;29;20268;-90
2024/04/12 03:13:52;;;;;;;8.57;5.93;;;;;;;;;;4927093;29;20180;-91
2024/04/12 03:16:57;;;;;;;15.27;7.38;;;;;;;;;;4927956;29;20191;-91
2024/04/12 03:20:03;;;;;;;9.73;6.00;;;;;;;;;;4926443;29;20196;-92
2024/04/12 03:23:08;;;;;;;11.77;6.23;;;;;;;;;;4925928;29;20220;-91
2024/04/12 03:26:12;;;;;;;11.57;6.37;;;;;;;;;;4926499;29;20298;-93
2024/04/12 03:29:19;;;;;;;13.63;6.00;;;;;;;;;;4926217;29;20183;-90
2024/04/12 03:32:32;;;;;;;11.80;6.60;;;;;;;;;;4927825;29;20199;-91
2024/04/12 03:35:38;;;;;;;11.23;6.67;;;;;;;;;;4927056;29;20184;-91
2024/04/12 03:38:45;;;;;;;10.30;6.33;;;;;;;;;;4927527;29;20240;-91
2024/04/12 03:41:52;;;;;;;10.87;6.23;;;;;;;;;;4930471;29;20624;-92
2024/04/12 03:44:58;;;;;;;12.17;5.93;;;;;;;;;;4929694;29;20212;-91
2024/04/12 03:48:04;;;;;;;11.68;6.13;;;;;;;;;;4929875;29;20191;-91
2024/04/12 03:51:08;;;;;;;14.23;6.27;;;;;;;;;;4932048;29;20196;-92
2024/04/12 03:54:17;;;;;;;11.43;5.80;;;;;;;;;;4931203;29;20187;-90
2024/04/12 03:57:26;;;;;;;11.53;5.90;;;;;;;;;;4931357;29;20188;-91
2024/04/12 04:00:38;;;;;;;16.37;5.93;;;;;;;;;;4932404;29;20233;-91
2024/04/12 04:03:49;;;;;;;17.60;6.27;;;;;;;;;;4931327;29;20179;-91
2024/04/12 04:06:55;;;;;;;12.43;5.63;;;;;;;;;;4932879;29;20520;-91
2024/04/12 04:09:59;;;;;;;12.17;5.73;;;;;;;;;;4933110;29;20233;-93
2024/04/12 04:13:07;;;;;;;14.50;6.07;;;;;;;;;;4932746;29;20211;-92
2024/04/12 04:16:16;;;;;;;10.13;5.63;;;;;;;;;;4932536;29;20261;-92
2024/04/12 04:19:30;;;;;;;9.10;5.23;;;;;;;;;;4933287;29;20204;-92
2024/04/12 04:22:40;;;;;;;8.83;5.30;;;;;;;;;;4932158;29;20227;-89
2024/04/12 04:25:46;;;;;;;11.47;6.10;;;;;;;;;;4933053;29;20222;-92
2024/04/12 04:28:51;;;;;;;10.67;5.87;;;;;;;;;;4929821;29;20223;-92
2024/04/12 04:32:00;;;;;;;9.03;5.30;;;;;;;;;;4931081;29;20263;-92
2024/04/12 04:35:05;;;;;;;12.80;6.23;;;;;;;;;;4932816;29;20232;-93
2024/04/12 04:38:10;;;;;;;14.43;6.30;;;;;;;;;;4931711;29;20790;-92
2024/04/12 04:41:19;;;;;;;13.73;5.90;;;;;;;;;;4931971;29;20171;-92
2024/04/12 04:44:24;;;;;;;10.37;5.40;;;;;;;;;;4931213;29;20252;-91
2024/04/12 04:47:33;;;;;;;11.73;6.33;;;;;;;;;;4931658;29;20176;-93
2024/04/12 04:50:39;;;;;;;18.10;6.53;;;;;;;;;;4932425;29;20212;-92
2024/04/12 04:53:44;;;;;;;10.40;6.03;;;;;;;;;;4932372;29;20227;-91
2024/04/12 04:56:51;;;;;;;10.27;6.37;;;;;;;;;;4932225;29;20719;-92
2024/04/12 05:00:05;;;;;;;14.07;6.37;;;;;;;;;;4934091;29;20217;-92
2024/04/12 05:03:15;;;;;;;13.53;6.40;;;;;;;;;;4933725;29;20183;-93
2024/04/12 05:06:24;;;;;;;12.60;6.50;;;;;;;;;;4931395;29;20317;-93
2024/04/12 05:09:30;;;;;;;18.07;7.27;;;;;;;;;;4932197;29;20213;-92
2024/04/12 05:12:34;;;;;;;12.03;6.93;;;;;;;;;;4932870;29;20223;-91
2024/04/12 05:15:52;;;;;;;13.40;7.03;;;;;;;;;;4932697;29;20204;-92
2024/04/12 05:19:08;;;;;;;11.90;6.57;;;;;;;;;;4931750;29;20192;-91
2024/04/12 05:22:13;;;;;;;13.07;6.93;;;;;;;;;;4933714;29;20223;-92
2024/04/12 05:25:22;;;;;;;22.33;7.37;;;;;;;;;;4931320;29;20192;-92
2024/04/12 05:28:28;;;;;;;16.23;6.27;;;;;;;;;;4933714;29;20219;-92
2024/04/12 07:46:36;;;;;;;16.50;7.70;;;;;;;;;;5534260;23;20245;-94
2024/04/12 07:49:48;;;;;;;13.90;7.95;;;;;;;;;;4929222;29;20274;-93
2024/04/12 07:52:53;;;;;;;12.27;7.43;;;;;;;;;;4934403;29;20232;-92
2024/04/12 07:55:58;;;;;;;15.30;7.15;;;;;;;;;;4933624;29;20216;-91
2024/04/12 07:59:13;;;;;;;12.60;7.13;;;;;;;;;;4933593;29;20191;-90
2024/04/12 08:02:23;;;;;;;11.82;7.45;;;;;;;;;;4933811;29;20204;-94
2024/04/12 08:05:28;;;;;;;11.45;7.65;;;;;;;;;;4936732;29;20263;-93
2024/04/12 08:08:44;;;;;;;13.57;7.35;;;;;;;;;;4934756;29;20277;-93
2024/04/12 08:11:51;;;;;;;11.88;7.13;;;;;;;;;;4932888;29;20193;-94
2024/04/12 08:14:56;;;;;;;12.80;7.55;;;;;;;;;;4930647;29;20196;-93
2024/04/12 08:18:04;;;;;;;16.85;7.82;;;;;;;;;;4931556;29;20247;-95
2024/04/12 08:21:12;;;;;;;13.20;8.10;;;;;;;;;;4933567;29;20268;-94
2024/04/12 08:24:22;;;;;;;11.07;7.95;;;;;;;;;;4934813;29;20223;-93
2024/04/12 08:27:31;;;;;;;15.18;8.50;;;;;;;;;;4933708;29;20240;-93
2024/04/12 08:30:51;;;;;;;16.58;8.25;;;;;;;;;;4931530;29;20196;-93
2024/04/12 08:33:57;;;;;;;14.02;7.50;;;;;;;;;;4932325;29;20196;-93
2024/04/12 08:37:12;;;;;;;11.63;7.70;;;;;;;;;;4932720;29;20192;-94
2024/04/12 08:40:19;;;;;;;13.95;7.40;;;;;;;;;;4933378;29;20196;-93
2024/04/12 08:43:41;;;;;;;11.13;7.28;;;;;;;;;;4931448;29;20215;-95
2024/04/12 08:46:49;;;;;;;11.73;7.15;;;;;;;;;;4934859;29;20224;-94
2024/04/12 08:50:03;;;;;;;9.90;6.50;;;;;;;;;;4933090;29;20204;-93
2024/04/12 08:53:13;;;;;;;12.32;6.97;;;;;;;;;;4934105;29;20196;-94
2024/04/12 08:56:18;;;;;;;12.57;7.55;;;;;;;;;;4932291;29;20191;-94
2024/04/12 08:59:26;;;;;;;11.98;7.00;;;;;;;;;;4933576;29;20223;-94
2024/04/12 09:02:40;;;;;;;13.88;7.18;;;;;;;;;;4933820;29;20578;-95
2024/04/12 09:05:47;;;;;;;17.75;7.65;;;;;;;;;;4933955;29;20268;-94
2024/04/12 09:08:53;;;;;;;12.05;6.57;;;;;;;;;;4935676;29;20187;-93
2024/04/12 09:12:12;;;;;;;9.80;6.57;;;;;;;;;;4935305;29;20216;-94
2024/04/12 09:15:27;;;;;;;13.35;6.25;;;;;;;;;;4934087;29;20203;-94
2024/04/12 09:18:44;;;;;;;12.60;6.70;;;;;;;;;;4932485;29;20201;-93
2024/04/12 09:21:58;;;;;;;11.65;6.38;;;;;;;;;;4922706;29;20264;-91
2024/04/12 09:25:14;;;;;;;11.52;6.72;;;;;;;;;;4933267;29;20200;-94
2024/04/12 09:35:05;;;;;;;15.10;6.90;;;;;;;;;;4932780;29;20200;-95
2024/04/12 09:38:16;;;;;;;11.18;6.80;;;;;;;;;;4932359;29;20267;-93
2024/04/12 09:44:49;;;;;;;20.55;10.57;;;;;;;;;;4929128;29;20199;-93
2024/04/12 14:38:15;;;;;;;10.23;3.40;;;;;;;;;;5006973;23;20219;-94
2024/04/12 14:41:23;;;;;;;8.05;3.40;;;;;;;;;;4930459;29;20208;-93
2024/04/12 14:44:31;;;;;;;10.35;3.95;;;;;;;;;;4933306;29;20746;-94
2024/04/12 14:47:36;;;;;;;7.65;3.40;;;;;;;;;;4928159;29;20195;-94
2024/04/12 14:50:42;;;;;;;13.13;3.30;;;;;;;;;;4929903;29;20175;-93
2024/04/12 14:57:08;;;;;;;8.90;3.10;;;;;;;;;;4932349;29;20228;-92
2024/04/12 15:00:18;;;;;;;6.88;3.53;;;;;;;;;;4934813;29;20196;-92
2024/04/12 15:50:58;;;;;;;7.45;4.07;;;;;;;;;;4935194;29;20208;-91
2024/04/12 16:14:38;;;;;;;7.78;3.75;;;;;;;;;;5291577;23;20240;-93
2024/04/12 16:17:46;;;;;;;8.73;3.60;;;;;;;;;;4931162;29;20274;-92
2024/04/12 16:20:54;;;;;;;22.95;6.90;;;;;;;;;;4934661;29;20241;-92
2024/04/12 16:23:58;;;;;;;10.35;4.47;;;;;;;;;;4932434;29;20228;-93
2024/04/12 16:27:04;;;;;;;8.55;3.80;;;;;;;;;;4935843;29;20175;-92
2024/04/12 16:30:11;;;;;;;11.93;3.90;;;;;;;;;;4933351;29;20762;-92
2024/04/12 16:36:36;;;;;;;10.70;3.78;;;;;;;;;;4935048;29;20196;-91
2024/04/12 16:39:41;;;;;;;8.55;3.58;;;;;;;;;;4935195;29;20175;-93
2024/04/12 16:42:46;;;;;;;11.98;4.30;;;;;;;;;;4933295;29;20180;-92
2024/04/12 16:45:54;;;;;;;14.20;4.95;;;;;;;;;;4935741;29;20203;-91
2024/04/12 16:49:01;;;;;;;11.68;4.82;;;;;;;;;;4938651;29;20183;-93
2024/04/12 16:52:06;;;;;;;17.70;7.13;;;;;;;;;;4931863;29;20200;-93
2024/04/12 16:55:12;;;;;;;14.35;5.35;;;;;;;;;;4931463;29;20307;-93
2024/04/12 16:58:16;;;;;;;14.05;5.50;;;;;;;;;;4931482;29;20180;-94
2024/04/12 17:01:25;;;;;;;8.93;4.22;;;;;;;;;;4933735;29;20196;-92
2024/04/12 17:04:29;;;;;;;9.63;5.00;;;;;;;;;;4933465;29;20222;-93
2024/04/12 17:07:34;;;;;;;15.55;5.82;;;;;;;;;;4931844;29;20231;-93
2024/04/12 17:10:40;;;;;;;9.48;4.70;;;;;;;;;;4930751;29;20272;-93
2024/04/12 17:13:48;;;;;;;9.90;4.70;;;;;;;;;;4929509;29;20223;-92
2024/04/12 17:16:55;;;;;;;11.27;4.28;;;;;;;;;;4931804;29;20188;-93
2024/04/12 17:20:00;;;;;;;16.13;4.97;;;;;;;;;;4932976;29;20195;-92
2024/04/12 17:23:06;;;;;;;15.25;5.05;;;;;;;;;;4933984;29;20192;-91
2024/04/12 17:26:10;;;;;;;11.73;4.85;;;;;;;;;;4933073;29;20256;-92
2024/04/12 17:29:17;;;;;;;13.73;5.82;;;;;;;;;;4932204;29;20191;-93
2024/04/12 17:32:32;;;;;;;10.13;3.95;;;;;;;;;;4931072;29;20215;-92
2024/04/12 17:35:39;;;;;;;15.20;3.90;;;;;;;;;;4930151;29;20199;-93
2024/04/12 17:38:44;;;;;;;13.23;4.00;;;;;;;;;;4930720;29;20757;-92
2024/04/12 17:41:48;;;;;;;13.00;4.70;;;;;;;;;;4932252;29;20196;-91
2024/04/12 17:44:55;;;;;;;10.48;3.90;;;;;;;;;;4931324;29;20211;-93
2024/04/12 17:48:00;;;;;;;11.88;3.55;;;;;;;;;;4931734;29;20199;-93
2024/04/12 17:51:06;;;;;;;9.13;4.07;;;;;;;;;;4932878;29;20228;-93
2024/04/12 17:54:11;;;;;;;10.50;3.92;;;;;;;;;;4932168;29;20200;-92
2024/04/12 17:57:16;;;;;;;10.43;4.28;;;;;;;;;;4930305;29;20175;-92
2024/04/12 18:00:22;;;;;;;12.45;4.10;;;;;;;;;;4929174;29;20200;-91
2024/04/12 18:06:49;;;;;;;10.90;4.50;;;;;;;;;;4933736;29;20319;-92
2024/04/12 18:09:55;;;;;;;9.48;4.53;;;;;;;;;;4932966;29;20271;-92
2024/04/12 18:13:02;;;;;;;14.30;4.57;;;;;;;;;;4932132;29;20196;-92
2024/04/12 18:16:07;;;;;;;11.98;4.53;;;;;;;;;;4933697;29;20196;-92
2024/04/12 18:19:15;;;;;;;12.93;4.68;;;;;;;;;;4921566;29;20234;-93
2024/04/12 18:22:19;;;;;;;17.25;4.90;;;;;;;;;;4932669;29;20258;-93
2024/04/12 18:25:24;;;;;;;10.93;4.40;;;;;;;;;;4931544;29;20211;-94
2024/04/12 18:28:31;;;;;;;10.63;4.50;;;;;;;;;;4931787;29;20260;-92
2024/04/12 18:31:35;;;;;;;10.35;4.95;;;;;;;;;;4932373;29;20772;-92
2024/04/12 18:34:44;;;;;;;13.27;5.00;;;;;;;;;;4933526;29;20187;-93
2024/04/12 18:48:04;;;;;;;15.93;6.90;;;;;;;;;;4933316;29;20200;-91
2024/04/12 18:51:16;;;;;;;19.00;7.57;;;;;;;;;;4932320;29;20183;-91
2024/04/12 18:54:21;;;;;;;15.80;6.65;;;;;;;;;;4931282;29;20203;-91
2024/04/12 18:57:26;;;;;;;14.25;6.88;;;;;;;;;;4933702;29;20221;-92
2024/04/12 19:00:34;;;;;;;16.13;6.00;;;;;;;;;;4930858;29;20199;-92
2024/04/12 19:03:38;;;;;;;14.80;6.72;;;;;;;;;;4936558;29;20209;-92
2024/04/12 19:10:07;;;;;;;13.73;5.32;;;;;;;;;;4932933;29;20244;-91
2024/04/12 19:13:14;;;;;;;10.73;5.40;;;;;;;;;;4932917;29;20232;-93
2024/04/12 19:16:19;;;;;;;11.65;5.40;;;;;;;;;;4932251;29;20184;-93
2024/04/12 19:19:25;;;;;;;13.65;5.63;;;;;;;;;;4934869;29;20172;-92
2024/04/12 19:22:34;;;;;;;9.55;5.00;;;;;;;;;;4934512;29;20196;-93
2024/04/12 19:25:38;;;;;;;11.07;5.00;;;;;;;;;;4936764;29;20250;-92
2024/04/12 19:28:45;;;;;;;11.82;5.15;;;;;;;;;;4935371;29;20204;-92
2024/04/12 19:31:49;;;;;;;13.70;5.10;;;;;;;;;;4935375;29;20734;-92
2024/04/12 19:34:54;;;;;;;13.73;5.63;;;;;;;;;;4934441;29;20196;-91
2024/04/12 19:38:03;;;;;;;14.63;7.50;;;;;;;;;;4933195;29;20316;-92
2024/04/12 19:41:14;;;;;;;16.33;7.38;;;;;;;;;;4936630;29;20197;-92
2024/04/12 19:44:19;;;;;;;11.65;5.72;;;;;;;;;;4925254;29;20228;-92
2024/04/12 19:47:24;;;;;;;11.82;5.88;;;;;;;;;;4936203;29;20211;-92
2024/04/12 19:50:31;;;;;;;13.70;7.00;;;;;;;;;;4935078;29;20265;-91
2024/04/12 19:53:39;;;;;;;18.48;5.93;;;;;;;;;;4936709;29;20188;-91
2024/04/12 19:56:45;;;;;;;11.85;6.00;;;;;;;;;;4934051;29;20662;-90
2024/04/12 19:59:51;;;;;;;16.35;5.88;;;;;;;;;;4933664;29;20196;-91
2024/04/12 20:02:55;;;;;;;16.00;5.63;;;;;;;;;;4934603;29;20196;-93
2024/04/12 20:06:00;;;;;;;9.93;5.70;;;;;;;;;;4935297;29;20227;-91
2024/04/12 20:09:06;;;;;;;14.80;6.32;;;;;;;;;;4933858;29;20202;-93
2024/04/12 20:12:11;;;;;;;18.38;5.38;;;;;;;;;;4934790;29;20195;-91
2024/04/12 20:15:17;;;;;;;9.23;5.47;;;;;;;;;;4933257;29;20223;-92
2024/04/12 20:18:22;;;;;;;12.35;5.80;;;;;;;;;;4933170;29;20203;-92
2024/04/12 20:21:29;;;;;;;12.30;5.93;;;;;;;;;;4934221;29;20225;-93
2024/04/12 20:24:35;;;;;;;13.85;6.43;;;;;;;;;;4935794;29;20215;-91
2024/04/12 20:27:44;;;;;;;17.80;6.53;;;;;;;;;;4935042;29;20188;-92
2024/04/12 20:31:09;;;;;;;12.77;5.53;;;;;;;;;;4935596;29;20180;-93
2024/04/12 20:34:43;;;;;;;15.88;7.72;;;;;;;;;;4935296;29;20269;-92
2024/04/12 20:37:47;;;;;;;12.35;6.10;;;;;;;;;;4934286;29;20204;-95
2024/04/12 20:41:02;;;;;;;14.68;6.45;;;;;;;;;;4935524;29;20180;-91
2024/04/12 20:44:07;;;;;;;16.70;6.50;;;;;;;;;;4934151;29;20220;-91
2024/04/12 20:47:12;;;;;;;14.63;6.40;;;;;;;;;;4934559;29;20199;-90
2024/04/12 20:50:17;;;;;;;15.63;5.68;;;;;;;;;;4936628;29;20204;-92
2024/04/12 20:53:23;;;;;;;21.08;6.63;;;;;;;;;;4932354;29;20192;-91
2024/04/12 20:56:29;;;;;;;10.23;5.80;;;;;;;;;;4930450;29;20378;-91
2024/04/12 20:59:35;;;;;;;16.17;6.28;;;;;;;;;;4936397;29;20679;-91
2024/04/12 21:02:40;;;;;;;14.05;6.55;;;;;;;;;;4931309;29;20192;-91
2024/04/12 21:05:46;;;;;;;13.95;6.20;;;;;;;;;;4932962;29;20210;-92
2024/04/12 21:08:53;;;;;;;28.02;15.10;;;;;;;;;;4935035;29;20195;-92
2024/04/12 21:12:08;;;;;;;17.73;7.20;;;;;;;;;;4933820;29;20192;-91
2024/04/12 21:15:12;;;;;;;12.00;6.63;;;;;;;;;;4931150;29;20219;-90
2024/04/12 21:18:17;;;;;;;10.40;6.63;;;;;;;;;;4932556;29;20268;-93
2024/04/12 21:21:23;;;;;;;10.73;6.07;;;;;;;;;;4933672;29;20212;-91
2024/04/12 21:24:28;;;;;;;13.93;6.90;;;;;;;;;;4933285;29;20272;-93
2024/04/12 21:27:35;;;;;;;16.98;7.65;;;;;;;;;;4933062;29;20256;-91
2024/04/12 21:30:39;;;;;;;15.18;7.25;;;;;;;;;;4932227;29;20199;-91
2024/04/12 21:33:45;;;;;;;13.52;7.22;;;;;;;;;;4931924;29;20272;-91
2024/04/12 21:36:49;;;;;;;14.57;7.65;;;;;;;;;;4934028;29;20183;-92
2024/04/12 21:39:56;;;;;;;13.60;7.50;;;;;;;;;;4933046;29;20228;-91
2024/04/12 21:43:01;;;;;;;14.52;8.23;;;;;;;;;;4931805;29;20284;-92
2024/04/12 21:46:09;;;;;;;18.42;7.68;;;;;;;;;;4929847;29;20251;-90
2024/04/12 21:49:14;;;;;;;18.75;6.82;;;;;;;;;;4929359;29;20188;-91
2024/04/12 21:52:19;;;;;;;14.18;6.90;;;;;;;;;;4930405;29;20254;-90
2024/04/12 21:55:24;;;;;;;14.85;7.05;;;;;;;;;;4929654;29;20203;-92
2024/04/12 21:58:31;;;;;;;13.35;6.82;;;;;;;;;;4928152;29;20187;-92
2024/04/12 22:01:36;;;;;;;15.52;7.03;;;;;;;;;;4928165;29;20219;-91
2024/04/12 22:04:40;;;;;;;17.65;7.30;;;;;;;;;;4929090;29;20219;-92
2024/04/12 22:07:50;;;;;;;16.27;7.43;;;;;;;;;;4930546;29;20168;-91
2024/04/12 22:10:56;;;;;;;15.35;7.65;;;;;;;;;;4930778;29;20199;-91
2024/04/12 22:14:03;;;;;;;15.02;7.63;;;;;;;;;;4929128;29;20215;-91
2024/04/12 22:17:08;;;;;;;19.88;6.93;;;;;;;;;;4930996;29;20187;-91
2024/04/12 22:20:13;;;;;;;12.93;6.75;;;;;;;;;;4927924;29;20213;-91
2024/04/12 22:23:18;;;;;;;14.32;6.70;;;;;;;;;;4929112;29;20200;-92
2024/04/12 22:27:06;;;;;;;15.27;7.40;;;;;;;;;;4927253;29;20216;-93
2024/04/12 22:30:13;;;;;;;16.08;7.28;;;;;;;;;;4928439;29;20196;-93
2024/04/12 22:33:18;;;;;;;16.95;7.40;;;;;;;;;;4926924;29;20180;-92
2024/04/12 22:36:24;;;;;;;15.27;7.10;;;;;;;;;;4927812;29;20196;-90
2024/04/12 22:39:28;;;;;;;16.77;6.97;;;;;;;;;;4929108;29;20196;-90
2024/04/12 22:42:33;;;;;;;15.48;7.25;;;;;;;;;;4929270;29;20215;-90
2024/04/12 22:45:39;;;;;;;16.50;6.82;;;;;;;;;;4928731;29;20575;-92
2024/04/12 22:48:44;;;;;;;16.50;6.75;;;;;;;;;;4929121;29;20251;-91
2024/04/12 22:51:48;;;;;;;10.13;6.85;;;;;;;;;;4932385;29;20176;-89
2024/04/12 22:54:54;;;;;;;12.43;6.93;;;;;;;;;;4927257;29;20275;-90
2024/04/12 22:57:59;;;;;;;13.38;7.70;;;;;;;;;;4925976;29;20562;-91
2024/04/12 23:01:05;;;;;;;17.45;6.53;;;;;;;;;;4924727;29;20292;-91
2024/04/12 23:04:10;;;;;;;20.08;7.55;;;;;;;;;;4925600;29;20684;-90
2024/04/12 23:07:14;;;;;;;14.45;7.13;;;;;;;;;;4924860;29;20223;-90
2024/04/12 23:10:20;;;;;;;14.52;7.30;;;;;;;;;;4925208;29;20679;-89
2024/04/12 23:13:24;;;;;;;12.48;7.45;;;;;;;;;;4925655;29;20325;-90
2024/04/12 23:16:30;;;;;;;14.52;7.50;;;;;;;;;;4925270;29;20297;-90
2024/04/12 23:19:36;;;;;;;16.02;7.93;;;;;;;;;;4925477;29;20199;-91
2024/04/12 23:22:44;;;;;;;16.77;7.57;;;;;;;;;;4925883;29;20307;-90
2024/04/12 23:25:48;;;;;;;15.95;6.95;;;;;;;;;;4926208;29;20290;-91
2024/04/12 23:28:53;;;;;;;13.52;7.18;;;;;;;;;;4924056;29;20561;-91
2024/04/12 23:31:59;;;;;;;15.57;6.85;;;;;;;;;;4926784;29;20183;-92
2024/04/12 23:35:04;;;;;;;13.00;7.22;;;;;;;;;;4928215;29;20569;-91
2024/04/12 23:38:08;;;;;;;12.50;7.05;;;;;;;;;;4927059;29;20212;-91
2024/04/12 23:41:14;;;;;;;14.40;7.65;;;;;;;;;;4926878;29;20662;-90
2024/04/12 23:44:18;;;;;;;14.60;7.32;;;;;;;;;;4925746;29;20554;-90
2024/04/12 23:47:26;;;;;;;12.20;7.32;;;;;;;;;;4926751;29;20227;-92
2024/04/12 23:50:30;;;;;;;14.48;7.68;;;;;;;;;;4926953;29;20192;-91
2024/04/12 23:53:35;;;;;;;17.10;7.00;;;;;;;;;;4927078;29;20187;-91
2024/04/12 23:56:39;;;;;;;10.93;7.03;;;;;;;;;;4936230;29;20188;-92
2024/04/12 23:59:47;;;;;;;18.23;7.95;;;;;;;;;;4929844;29;20192;-90
